Dulzura (157) Station Data

Red Flag Warning: No
Fire Weather Zone: 250
SDGE Region: Mountain Empire
Lat/Lon: 32.615/-116.758

Observations

Time Wind Speed/Gust Temp(F) RH Fuel Moist Fuel Temp(F) Dewpt(F) Tmax(F) Tmin(F) Accum Precip 10-min Precip SL Press(mb)
6/22 5:00am 105 2 G 3 58° 93% - - 56° 65.6° 57.5° - - 1009.0
6/22 4:50am 102 1 G 2 58° 93% - - 56° 65.6° 57.5° - - 1009.0
6/22 4:40am 345 0 G 1 58° 92% - - 56° 65.6° 57.5° - - 1009.0
6/22 4:30am 341 0 G 2 59° 92% - - 56° 65.6° 58.3° - - 1009.0
6/22 4:20am 340 1 G 3 59° 91% - - 56° 65.6° 58.5° - - 1009.0
6/22 4:10am 340 2 G 3 60° 90% - - 57° 65.6° 59.1° - - 1008.0
6/22 4:00am 25 2 G 3 60° 88% - - 56° 65.6° 59.1° - - 1008.0
6/22 3:50am 50 1 G 2 62° 84% - - 57° 65.6° 59.1° - - 1008.0
6/22 3:40am 147 0 G 1 64° 82% - - 58° 65.6° 59.1° - - 1008.0
6/22 3:30am 284 2 G 4 64° 84% - - 59° 65.6° 59.1° - - 1008.0
6/22 3:20am 303 2 G 3 63° 87% - - 59° 65.6° 59.1° - - 1008.0
6/22 3:10am 316 1 G 2 61° 93% - - 59° 65.6° 59.1° - - 1008.0
6/22 3:00am 37 1 G 1 60° 93% - - 58° 65.6° 59.1° - - 1008.0
6/22 2:50am 67 2 G 3 59° 92% - - 57° 65.6° 59.1° - - 1008.0
6/22 2:40am 97 1 G 2 60° 91% - - 57° 65.6° 59.1° - - 1009.0
6/22 2:30am 120 2 G 2 60° 90% - - 57° 65.6° 59.4° - - 1009.0
6/22 2:20am 136 2 G 3 61° 87% - - 57° 65.6° 60.3° - - 1008.0
6/22 2:10am 5 1 G 1 62° 85% - - 58° 65.6° 61.2° - - 1008.0
6/22 2:00am 344 0 G 1 63° 85% - - 58° 65.6° 62° - - 1008.0
6/22 1:50am 334 0 G 1 63° 85% - - 59° 65.6° 62° - - 1009.0
6/22 1:40am 334 0 G 1 63° 87% - - 59° 65.6° 62° - - 1009.0
6/22 1:30am 0 0 G 0 63° 87% - - 59° 65.6° 62° - - 1009.0
6/22 1:20am 64 0 G 1 63° 86% - - 59° 65.6° 62° - - 1009.0
6/22 1:10am 57 1 G 2 63° 87% - - 59° 65.6° 62° - - 1009.0
6/22 1:00am 36 2 G 2 62° 86% - - 58° 65.6° 62° - - 1009.0
6/22 12:50am 82 2 G 3 63° 85% - - 58° 65.6° 62.2° - - 1009.0
6/22 12:40am 99 1 G 3 63° 84% - - 58° 65.6° 62.5° - - 1009.0
6/22 12:30am 118 2 G 3 63° 83% - - 58° 65.6° 62.9° - - 1009.0
6/22 12:20am 123 1 G 3 65° 81% - - 58° 65.6° 63.8° - - 1008.0
6/22 12:10am 131 1 G 2 65° 80% - - 59° 65.6° 64.6° - - 1008.0
6/22 12:00am 99 0 G 1 65° 80% - - 59° 96.8° 64.9° - - 1008.0
6/21 11:50pm 100 1 G 2 66° 79% - - 59° 96.8° 65.1° - - 1008.0
6/21 11:40pm 111 0 G 2 66° 78% - - 59° 96.8° 65.5° - - 1008.0
6/21 11:30pm 133 1 G 2 66° 77% - - 59° 96.8° 65.9° - - 1008.0
6/21 11:20pm 155 0 G 2 66° 77% - - 59° 96.8° 65.9° - - 1008.0
6/21 11:10pm 36 0 G 1 67° 76% - - 59° 96.8° 65.9° - - 1008.0
6/21 11:00pm 36 0 G 1 68° 74% - - 59° 96.8° 67.2° - - 1008.0
6/21 10:50pm 36 0 G 1 68° 74% - - 60° 96.8° 68° - - 1008.0
6/21 10:40pm 20 1 G 2 69° 73% - - 60° 96.8° 68.1° - - 1008.0
6/21 10:30pm 352 1 G 2 69° 73% - - 60° 96.8° 68.8° - - 1008.0
6/21 10:20pm 2 0 G 2 69° 72% - - 60° 96.8° 68.9° - - 1008.0
6/21 10:10pm 352 1 G 3 70° 71% - - 60° 96.8° 69.4° - - 1008.0
6/21 10:00pm 297 0 G 2 70° 71% - - 60° 96.8° 69.5° - - 1008.0
6/21 9:50pm 262 1 G 2 70° 70% - - 60° 96.8° 69.5° - - 1008.0
6/21 9:40pm 256 0 G 1 71° 70% - - 60° 96.8° 70.1° - - 1008.0
6/21 9:30pm 278 1 G 4 71° 69% - - 60° 96.8° 70.3° - - 1007.0
6/21 9:20pm 317 4 G 7 71° 68% - - 60° 96.8° 70.6° - - 1007.0
6/21 9:10pm 336 5 G 6 72° 66% - - 60° 96.8° 71.1° - - 1007.0
6/21 9:00pm 311 2 G 4 73° 64% - - 61° 96.8° 71.1° - - 1007.0
6/21 8:50pm 309 1 G 3 74° 63% - - 60° 96.8° 71.1° - - 1007.0
6/21 8:40pm 301 1 G 3 74° 62% - - 60° 96.8° 71.1° - - 1007.0
6/21 8:30pm 299 3 G 5 75° 62% - - 61° 96.8° 71.1° - - 1007.0
6/21 8:20pm 285 3 G 4 75° 61% - - 61° 96.8° 71.1° - - 1007.0
6/21 8:10pm 301 1 G 3 76° 60% - - 61° 96.8° 71.1° - - 1007.0
6/21 8:00pm 299 4 G 6 76° 59% - - 61° 96.8° 71.1° - - 1006.0
6/21 7:50pm 310 5 G 7 77° 58% - - 61° 96.8° 71.1° - - 1006.0
6/21 7:40pm 302 6 G 8 78° 56% - - 61° 96.8° 71.1° - - 1006.0
6/21 7:30pm 310 7 G 10 79° 55% - - 61° 96.8° 71.1° - - 1006.0
6/21 7:20pm 324 6 G 9 79° 54% - - 61° 96.8° 71.1° - - 1006.0
6/21 7:10pm 320 7 G 10 80° 53% - - 61° 96.8° 71.1° - - 1006.0
6/21 7:00pm 323 8 G 11 80° 52% - - 61° 96.8° 71.1° - - 1006.0
6/21 6:50pm 318 7 G 11 81° 51% - - 61° 96.8° 71.1° - - 1006.0
6/21 6:40pm 314 9 G 12 81° 51% - - 61° 96.8° 71.1° - - 1006.0
6/21 6:30pm 316 9 G 13 82° 49% - - 61° 96.8° 71.1° - - 1006.0
6/21 6:20pm 318 9 G 12 83° 47% - - 61° 96.8° 71.1° - - 1006.0
6/21 6:10pm 321 7 G 12 85° 45% - - 61° 96.8° 71.1° - - 1005.0
6/21 6:00pm 316 7 G 11 85° 44% - - 61° 96.8° 71.1° - - 1005.0
6/21 5:50pm 309 8 G 11 85° 44% - - 61° 96.8° 71.1° - - 1005.0
6/21 5:40pm 310 8 G 13 86° 44% - - 61° 96.8° 71.1° - - 1005.0
6/21 5:30pm 320 8 G 12 86° 43% - - 61° 96.8° 71.1° - - 1005.0
6/21 5:20pm 330 8 G 14 86° 43% - - 61° 96.8° 71.1° - - 1005.0
6/21 5:10pm 327 10 G 15 86° 43% - - 61° 96.8° 71.1° - - 1005.0
6/21 5:00pm 321 9 G 14 87° 42% - - 61° 96.8° 71.1° - - 1005.0
6/21 4:50pm 325 10 G 15 87° 41% - - 60° 96.8° 71.1° - - 1005.0
6/21 4:40pm 323 10 G 15 88° 40% - - 60° 96.8° 71.1° - - 1005.0
6/21 4:30pm 329 11 G 17 88° 40% - - 60° 96.8° 71.1° - - 1005.0
6/21 4:20pm 328 11 G 17 88° 39% - - 60° 96.8° 71.1° - - 1005.0
6/21 4:10pm 313 10 G 14 89° 39% - - 60° 96.8° 71.1° - - 1005.0
6/21 4:00pm 327 10 G 16 89° 39% - - 61° 96.8° 71.1° - - 1005.0
6/21 3:50pm 325 10 G 15 90° 38% - - 61° 96.8° 71.1° - - 1005.0
6/21 3:40pm 338 10 G 15 90° 38% - - 61° 96.8° 71.1° - - 1005.0
6/21 3:30pm 324 10 G 15 91° 37% - - 61° 96.8° 71.1° - - 1006.0
6/21 3:20pm 328 11 G 18 90° 39% - - 61° 96.8° 71.1° - - 1006.0
6/21 3:10pm 326 10 G 16 90° 38% - - 61° 96.8° 71.1° - - 1006.0
6/21 3:00pm 334 11 G 17 91° 37% - - 61° 96.8° 71.1° - - 1006.0
6/21 2:50pm 327 11 G 17 90° 37% - - 61° 96.8° 71.1° - - 1006.0
6/21 2:40pm 324 10 G 16 91° 36% - - 61° 96.8° 71.1° - - 1006.0
6/21 2:30pm 323 10 G 15 92° 36% - - 61° 96.8° 71.1° - - 1006.0
6/21 2:20pm 310 10 G 14 93° 34% - - 60° 96.8° 71.1° - - 1006.0
6/21 2:10pm 315 10 G 15 92° 33% - - 59° 96.8° 71.1° - - 1006.0
6/21 2:00pm 316 11 G 15 93° 31% - - 58° 96.8° 71.1° - - 1006.0
6/21 1:50pm 316 10 G 16 94° 29% - - 57° 96.8° 71.1° - - 1006.0
6/21 1:40pm 330 9 G 15 95° 29% - - 58° 96.8° 71.1° - - 1006.0
6/21 1:30pm 309 8 G 14 95° 28% - - 58° 96.8° 71.1° - - 1006.0
6/21 1:20pm 316 8 G 12 96° 29% - - 58° 96.8° 71.1° - - 1006.0
6/21 1:10pm 304 7 G 12 95° 30% - - 59° 96.8° 71.1° - - 1006.0
6/21 1:00pm 320 8 G 15 94° 30% - - 58° 96.8° 71.1° - - 1006.0
6/21 12:50pm 327 7 G 12 95° 29% - - 58° 96.8° 71.1° - - 1006.0
6/21 12:40pm 316 7 G 12 95° 29% - - 58° 96.8° 71.1° - - 1007.0
6/21 12:30pm 321 7 G 12 95° 29% - - 57° 96.8° 71.1° - - 1007.0
6/21 12:20pm 328 8 G 12 94° 29% - - 57° 96.8° 71.1° - - 1007.0
6/21 12:10pm 321 7 G 12 95° 27% - - 56° 96.8° 71.1° - - 1007.0
6/21 12:00pm 330 7 G 10 95° 27% - - 56° 96.8° 71.1° - - 1007.0
6/21 11:50am 325 7 G 11 94° 28% - - 56° 96.1° 71.1° - - 1007.0
6/21 11:40am 328 6 G 12 95° 28% - - 56° 96.1° 71.1° - - 1007.0
6/21 11:30am 340 6 G 11 95° 27% - - 55° 96.1° 71.1° - - 1007.0
6/21 11:20am 270 2 G 5 95° 27% - - 56° 96° 71.1° - - 1007.0
6/21 11:10am 299 3 G 9 94° 27% - - 56° 95.1° 71.1° - - 1007.0
6/21 11:00am 218 2 G 6 93° 29% - - 56° 94.5° 71.1° - - 1007.0
6/21 10:50am 207 2 G 5 94° 28% - - 56° 94.5° 71.1° - - 1007.0
6/21 10:40am 325 4 G 8 93° 28% - - 55° 93.9° 71.1° - - 1007.0
6/21 10:30am 334 5 G 9 92° 29% - - 55° 93.6° 71.1° - - 1007.0
6/21 10:20am 356 5 G 9 92° 29% - - 55° 93.4° 71.1° - - 1007.0
6/21 10:10am 89 3 G 6 93° 29% - - 56° 93.4° 71.1° - - 1007.0
6/21 10:00am 114 4 G 6 92° 30% - - 56° 92.8° 71.1° - - 1007.0
6/21 9:50am 112 3 G 5 92° 27% - - 53° 92.8° 71.1° - - 1007.0
6/21 9:40am 106 3 G 5 92° 25% - - 51° 92.8° 71.1° - - 1007.0
6/21 9:30am 106 3 G 5 92° 23% - - 49° 92.8° 71.1° - - 1007.0
6/21 9:20am 93 2 G 5 91° 25% - - 50° 92° 71.1° - - 1007.0
6/21 9:10am 107 2 G 4 89° 28% - - 51° 90° 71.1° - - 1008.0
6/21 9:00am 108 2 G 3 88° 29% - - 52° 88.5° 71.1° - - 1008.0
6/21 8:50am 122 2 G 5 87° 28% - - 50° 87.8° 71.1° - - 1008.0
6/21 8:40am 122 3 G 4 86° 28% - - 49° 87° 71.1° - - 1008.0
6/21 8:30am 113 3 G 5 85° 31% - - 51° 85.9° 71.1° - - 1008.0
6/21 8:20am 122 3 G 6 83° 32% - - 50° 84.4° 71.1° - - 1008.0
6/21 8:10am 126 4 G 7 82° 31% - - 48° 82.9° 71.1° - - 1008.0
6/21 8:00am 114 5 G 8 81° 33% - - 49° 81.3° 71.1° - - 1008.0
6/21 7:50am 101 5 G 7 80° 33% - - 48° 81.1° 71.1° - - 1008.0
6/21 7:40am 102 3 G 6 79° 35% - - 49° 79.8° 71.1° - - 1008.0
6/21 7:30am 104 3 G 5 78° 37% - - 49° 78.5° 71.1° - - 1008.0
6/21 7:20am 80 3 G 5 77° 39% - - 50° 77.8° 71.1° - - 1008.0
6/21 7:10am 69 4 G 6 75° 42% - - 50° 77.5° 71.1° - - 1008.0
6/21 7:00am 95 4 G 7 74° 42% - - 50° 77.5° 71.1° - - 1008.0
6/21 6:50am 86 3 G 7 74° 43% - - 50° 77.5° 71.1° - - 1008.0
6/21 6:40am 95 2 G 5 73° 43% - - 50° 77.5° 71.1° - - 1008.0
6/21 6:30am 86 2 G 5 73° 44% - - 50° 77.5° 71.1° - - 1008.0
6/21 6:20am 75 2 G 4 72° 46% - - 50° 77.5° 71.1° - - 1009.0
6/21 6:10am 60 3 G 4 72° 45% - - 50° 77.5° 71.1° - - 1009.0
6/21 6:00am 95 2 G 5 72° 45% - - 49° 77.5° 71.1° - - 1009.0
6/21 5:50am 86 2 G 5 72° 46% - - 50° 77.5° 71.2° - - 1009.0
6/21 5:40am 67 3 G 5 72° 46% - - 50° 77.5° 71.4° - - 1009.0
6/21 5:30am 64 4 G 6 72° 46% - - 50° 77.5° 71.6° - - 1008.0
6/21 5:20am 65 4 G 8 73° 45% - - 50° 77.5° 71.8° - - 1008.0
6/21 5:10am 70 3 G 8 72° 46% - - 50° 77.5° 71.8° - - 1008.0
6/21 5:00am 71 3 G 4 72° 46% - - 50° 77.5° 71.8° - - 1008.0
6/21 4:50am 74 3 G 4 72° 46% - - 51° 77.5° 71.8° - - 1008.0
6/21 4:40am 87 2 G 4 73° 46% - - 51° 77.5° 71.9° - - 1008.0
6/21 4:30am 97 4 G 6 72° 47% - - 51° 77.5° 71.9° - - 1009.0
6/21 4:20am 96 3 G 5 73° 47% - - 51° 77.5° 72.1° - - 1009.0
6/21 4:10am 109 3 G 7 73° 46% - - 51° 77.5° 72.1° - - 1008.0
6/21 4:00am 84 3 G 6 73° 47% - - 52° 77.5° 72.1° - - 1009.0
6/21 3:50am 79 2 G 4 73° 48% - - 52° 77.5° 72.1° - - 1009.0
6/21 3:40am 77 3 G 5 73° 49% - - 52° 77.5° 72.1° - - 1008.0
6/21 3:30am 101 4 G 6 74° 47% - - 52° 77.5° 72.7° - - 1008.0
6/21 3:20am 87 3 G 6 74° 47% - - 52° 77.5° 73.1° - - 1008.0
6/21 3:10am 81 2 G 5 73° 48% - - 52° 77.5° 73.1° - - 1008.0
6/21 3:00am 62 2 G 4 73° 49% - - 53° 77.5° 73.1° - - 1009.0
6/21 2:50am 95 2 G 5 74° 49% - - 53° 77.5° 73.3° - - 1009.0
6/21 2:40am 80 3 G 5 74° 48% - - 53° 77.5° 73.4° - - 1009.0
6/21 2:30am 92 3 G 6 74° 48% - - 53° 77.5° 74.1° - - 1009.0
6/21 2:20am 117 1 G 3 75° 48% - - 54° 77.5° 74.1° - - 1009.0
6/21 2:10am 109 1 G 4 75° 48% - - 54° 77.5° 74.3° - - 1009.0
6/21 2:00am 80 3 G 5 75° 49% - - 54° 77.5° 74.4° - - 1009.0
6/21 1:50am 83 3 G 6 75° 48% - - 54° 77.5° 74.8° - - 1009.0
6/21 1:40am 106 3 G 5 75° 48% - - 55° 77.5° 74.8° - - 1009.0
6/21 1:30am 90 2 G 4 75° 49% - - 55° 77.5° 74.8° - - 1009.0
6/21 1:20am 64 3 G 6 76° 48% - - 55° 77.5° 75.3° - - 1009.0
6/21 1:10am 72 3 G 5 76° 48% - - 55° 77.5° 75.5° - - 1009.0
6/21 1:00am 104 2 G 6 77° 49% - - 56° 77.5° 75.5° - - 1009.0
6/21 12:50am 90 2 G 5 77° 49% - - 56° 77.5° 75.5° - - 1009.0
6/21 12:40am 78 3 G 5 77° 50% - - 57° 77.2° 75.5° - - 1009.0
6/21 12:30am 91 3 G 6 76° 52% - - 57° 76.8° 75.5° - - 1009.0
6/21 12:20am 86 2 G 5 76° 52% - - 58° 76.8° 75.5° - - 1009.0
6/21 12:10am 96 3 G 6 76° 53% - - 58° 76.5° 75.5° - - 1010.0
6/21 12:00am 102 2 G 4 76° 53% - - 58° 100.2° 69.8° - - 1010.0
6/20 11:50pm 124 2 G 4 76° 54% - - 58° 100.2° 69.8° - - 1010.0
6/20 11:40pm 157 2 G 3 76° 54% - - 58° 100.2° 69.8° - - 1010.0
6/20 11:30pm 148 1 G 2 76° 56% - - 59° 100.2° 69.8° - - 1010.0
6/20 11:20pm 159 1 G 2 75° 57% - - 59° 100.2° 69.8° - - 1010.0
6/20 11:10pm 134 1 G 2 76° 57% - - 59° 100.2° 69.8° - - 1010.0
6/20 11:00pm 165 1 G 2 75° 60% - - 60° 100.2° 69.8° - - 1010.0
6/20 10:50pm 119 0 G 1 75° 58% - - 59° 100.2° 69.8° - - 1010.0
6/20 10:40pm 114 1 G 1 75° 56% - - 59° 100.2° 69.8° - - 1010.0
6/20 10:30pm 111 0 G 1 76° 56% - - 59° 100.2° 69.8° - - 1010.0
6/20 10:20pm 0 0 G 0 76° 53% - - 58° 100.2° 69.8° - - 1010.0
6/20 10:10pm 111 0 G 1 76° 54% - - 58° 100.2° 69.8° - - 1010.0
6/20 10:00pm 111 0 G 1 77° 53% - - 58° 100.2° 69.8° - - 1010.0
6/20 9:50pm 3 0 G 3 78° 51% - - 58° 100.2° 69.8° - - 1010.0
6/20 9:40pm 10 2 G 3 78° 51% - - 59° 100.2° 69.8° - - 1010.0
6/20 9:30pm 346 3 G 6 79° 49% - - 59° 100.2° 69.8° - - 1010.0
6/20 9:20pm 318 5 G 6 80° 49% - - 59° 100.2° 69.8° - - 1010.0
6/20 9:10pm 319 4 G 5 80° 48% - - 59° 100.2° 69.8° - - 1009.0
6/20 9:00pm 321 4 G 5 80° 48% - - 59° 100.2° 69.8° - - 1009.0
6/20 8:50pm 328 3 G 4 81° 47% - - 59° 100.2° 69.8° - - 1009.0
6/20 8:40pm 334 4 G 6 81° 47% - - 59° 100.2° 69.8° - - 1009.0
6/20 8:30pm 331 5 G 7 81° 46% - - 58° 100.2° 69.8° - - 1009.0
6/20 8:20pm 334 6 G 7 82° 45% - - 58° 100.2° 69.8° - - 1009.0
6/20 8:10pm 335 6 G 7 82° 44% - - 58° 100.2° 69.8° - - 1009.0
6/20 8:00pm 348 6 G 8 83° 43% - - 58° 100.2° 69.8° - - 1009.0
6/20 7:50pm 346 6 G 9 83° 42% - - 58° 100.2° 69.8° - - 1009.0
6/20 7:40pm 346 5 G 9 84° 41% - - 58° 100.2° 69.8° - - 1009.0
6/20 7:30pm 341 6 G 10 85° 40% - - 58° 100.2° 69.8° - - 1008.0
6/20 7:20pm 335 6 G 10 86° 39% - - 58° 100.2° 69.8° - - 1008.0
6/20 7:10pm 330 5 G 9 87° 38% - - 58° 100.2° 69.8° - - 1008.0
6/20 7:00pm 330 4 G 9 87° 37% - - 58° 100.2° 69.8° - - 1008.0
6/20 6:50pm 320 6 G 11 88° 37% - - 58° 100.2° 69.8° - - 1008.0
6/20 6:40pm 314 10 G 16 88° 37% - - 58° 100.2° 69.8° - - 1008.0
6/20 6:30pm 316 10 G 16 88° 36% - - 58° 100.2° 69.8° - - 1008.0
6/20 6:20pm 323 10 G 15 89° 35% - - 58° 100.2° 69.8° - - 1008.0
6/20 6:10pm 320 9 G 15 90° 34% - - 58° 100.2° 69.8° - - 1008.0
6/20 6:00pm 319 10 G 15 90° 34% - - 57° 100.2° 69.8° - - 1008.0